sensor_id;sensor_type;location;lat;lon;timestamp;P1;durP1;ratioP1;P2;durP2;ratioP2
1887;SDS011;944;51.574;6.980;2022-08-18T00:00:08;94.70;;;63.20;;
1887;SDS011;944;51.574;6.980;2022-08-18T00:03:13;95.80;;;65.53;;
1887;SDS011;944;51.574;6.980;2022-08-18T00:05:43;91.97;;;64.00;;
1887;SDS011;944;51.574;6.980;2022-08-18T00:08:11;91.00;;;61.63;;
1887;SDS011;944;51.574;6.980;2022-08-18T00:10:41;84.30;;;58.93;;
1887;SDS011;944;51.574;6.980;2022-08-18T00:13:13;96.17;;;60.63;;
1887;SDS011;944;51.574;6.980;2022-08-18T00:15:41;93.87;;;63.93;;
1887;SDS011;944;51.574;6.980;2022-08-18T00:18:08;86.30;;;59.60;;
1887;SDS011;944;51.574;6.980;2022-08-18T00:20:55;96.10;;;63.37;;
1887;SDS011;944;51.574;6.980;2022-08-18T00:23:27;92.30;;;60.97;;
1887;SDS011;944;51.574;6.980;2022-08-18T00:25:58;97.10;;;61.57;;
1887;SDS011;944;51.574;6.980;2022-08-18T00:28:28;85.93;;;59.87;;
1887;SDS011;944;51.574;6.980;2022-08-18T00:30:57;96.50;;;64.00;;
1887;SDS011;944;51.574;6.980;2022-08-18T00:33:28;81.60;;;55.67;;
1887;SDS011;944;51.574;6.980;2022-08-18T00:36:04;96.77;;;63.00;;
1887;SDS011;944;51.574;6.980;2022-08-18T00:38:45;105.30;;;65.57;;
1887;SDS011;944;51.574;6.980;2022-08-18T00:41:23;97.40;;;63.37;;
1887;SDS011;944;51.574;6.980;2022-08-18T00:44:05;91.60;;;61.90;;
1887;SDS011;944;51.574;6.980;2022-08-18T00:46:47;97.70;;;61.90;;
1887;SDS011;944;51.574;6.980;2022-08-18T00:49:19;95.57;;;60.57;;
1887;SDS011;944;51.574;6.980;2022-08-18T00:51:49;91.90;;;59.03;;
1887;SDS011;944;51.574;6.980;2022-08-18T00:54:38;90.73;;;61.33;;
1887;SDS011;944;51.574;6.980;2022-08-18T00:57:08;100.00;;;65.40;;
1887;SDS011;944;51.574;6.980;2022-08-18T00:59:39;99.37;;;64.47;;
1887;SDS011;944;51.574;6.980;2022-08-18T01:02:20;99.47;;;63.37;;
1887;SDS011;944;51.574;6.980;2022-08-18T01:05:05;108.63;;;64.07;;
1887;SDS011;944;51.574;6.980;2022-08-18T01:07:44;97.10;;;64.87;;
1887;SDS011;944;51.574;6.980;2022-08-18T01:10:19;103.43;;;64.90;;
1887;SDS011;944;51.574;6.980;2022-08-18T01:12:57;111.07;;;68.93;;
1887;SDS011;944;51.574;6.980;2022-08-18T01:15:49;107.53;;;68.13;;
1887;SDS011;944;51.574;6.980;2022-08-18T01:18:18;103.20;;;68.07;;
1887;SDS011;944;51.574;6.980;2022-08-18T01:21:09;102.57;;;67.47;;
1887;SDS011;944;51.574;6.980;2022-08-18T01:24:08;100.57;;;64.43;;
1887;SDS011;944;51.574;6.980;2022-08-18T01:26:39;102.63;;;68.70;;
1887;SDS011;944;51.574;6.980;2022-08-18T01:29:16;103.53;;;68.27;;
1887;SDS011;944;51.574;6.980;2022-08-18T01:31:49;107.10;;;68.63;;
1887;SDS011;944;51.574;6.980;2022-08-18T01:34:19;110.37;;;67.93;;
1887;SDS011;944;51.574;6.980;2022-08-18T01:36:54;107.93;;;69.50;;
1887;SDS011;944;51.574;6.980;2022-08-18T07:01:05;117.87;;;55.00;;
1887;SDS011;944;51.574;6.980;2022-08-18T08:06:06;61.60;;;39.40;;
1887;SDS011;944;51.574;6.980;2022-08-18T08:38:48;52.77;;;34.27;;
1887;SDS011;944;51.574;6.980;2022-08-18T08:41:49;45.40;;;30.43;;
1887;SDS011;944;51.574;6.980;2022-08-18T08:48:28;50.10;;;32.47;;
1887;SDS011;944;51.574;6.980;2022-08-18T08:51:30;41.83;;;29.43;;
1887;SDS011;944;51.574;6.980;2022-08-18T08:54:22;44.03;;;29.10;;
1887;SDS011;944;51.574;6.980;2022-08-18T09:54:16;22.90;;;15.87;;
1887;SDS011;944;51.574;6.980;2022-08-18T09:57:15;23.23;;;16.23;;
1887;SDS011;944;51.574;6.980;2022-08-18T10:03:02;18.97;;;14.13;;
1887;SDS011;944;51.574;6.980;2022-08-18T10:44:23;12.30;;;10.43;;
1887;SDS011;944;51.574;6.980;2022-08-18T12:18:02;13.20;;;8.00;;
1887;SDS011;944;51.574;6.980;2022-08-18T12:27:45;8.67;;;7.40;;
1887;SDS011;944;51.574;6.980;2022-08-18T12:34:07;12.23;;;7.60;;
1887;SDS011;944;51.574;6.980;2022-08-18T12:36:43;8.30;;;7.50;;
1887;SDS011;944;51.574;6.980;2022-08-18T12:39:11;8.00;;;6.70;;
1887;SDS011;944;51.574;6.980;2022-08-18T12:41:39;9.20;;;7.00;;
1887;SDS011;944;51.574;6.980;2022-08-18T12:44:11;7.87;;;7.07;;
1887;SDS011;944;51.574;6.980;2022-08-18T12:48:02;9.63;;;6.40;;
1887;SDS011;944;51.574;6.980;2022-08-18T15:06:41;7.17;;;4.63;;
1887;SDS011;944;51.574;6.980;2022-08-18T15:09:10;4.90;;;4.40;;
1887;SDS011;944;51.574;6.980;2022-08-18T15:11:39;6.33;;;4.20;;
1887;SDS011;944;51.574;6.980;2022-08-18T15:14:18;6.13;;;4.07;;
1887;SDS011;944;51.574;6.980;2022-08-18T15:19:35;9.10;;;3.80;;
1887;SDS011;944;51.574;6.980;2022-08-18T15:22:04;6.70;;;5.67;;
1887;SDS011;944;51.574;6.980;2022-08-18T15:25:05;4.43;;;3.73;;
1887;SDS011;944;51.574;6.980;2022-08-18T15:28:18;11.43;;;4.80;;
1887;SDS011;944;51.574;6.980;2022-08-18T15:37:06;9.00;;;4.40;;
1887;SDS011;944;51.574;6.980;2022-08-18T15:42:03;8.13;;;4.30;;
1887;SDS011;944;51.574;6.980;2022-08-18T15:45:03;9.50;;;4.43;;
1887;SDS011;944;51.574;6.980;2022-08-18T15:47:45;5.83;;;3.87;;
1887;SDS011;944;51.574;6.980;2022-08-18T15:50:15;6.33;;;4.77;;
1887;SDS011;944;51.574;6.980;2022-08-18T15:56:29;5.30;;;3.37;;
1887;SDS011;944;51.574;6.980;2022-08-18T15:59:18;4.10;;;3.80;;
1887;SDS011;944;51.574;6.980;2022-08-18T16:02:13;7.17;;;3.83;;
1887;SDS011;944;51.574;6.980;2022-08-18T16:04:41;5.70;;;3.83;;
1887;SDS011;944;51.574;6.980;2022-08-18T16:07:09;5.73;;;3.60;;
1887;SDS011;944;51.574;6.980;2022-08-18T16:09:41;14.33;;;3.80;;
1887;SDS011;944;51.574;6.980;2022-08-18T16:12:29;9.33;;;3.83;;
1887;SDS011;944;51.574;6.980;2022-08-18T16:14:59;4.50;;;4.10;;
1887;SDS011;944;51.574;6.980;2022-08-18T19:59:13;6.00;;;3.40;;
1887;SDS011;944;51.574;6.980;2022-08-18T20:02:15;7.30;;;4.13;;
1887;SDS011;944;51.574;6.980;2022-08-18T20:05:02;11.20;;;4.43;;
1887;SDS011;944;51.574;6.980;2022-08-18T20:08:28;4.80;;;3.80;;
1887;SDS011;944;51.574;6.980;2022-08-18T20:11:35;11.27;;;3.60;;
1887;SDS011;944;51.574;6.980;2022-08-18T20:14:44;4.10;;;3.70;;
1887;SDS011;944;51.574;6.980;2022-08-18T20:17:27;7.13;;;3.80;;
1887;SDS011;944;51.574;6.980;2022-08-18T20:20:14;6.27;;;3.70;;
1887;SDS011;944;51.574;6.980;2022-08-18T20:22:46;7.37;;;4.30;;
1887;SDS011;944;51.574;6.980;2022-08-18T20:25:31;6.17;;;4.17;;
1887;SDS011;944;51.574;6.980;2022-08-18T20:34:18;9.87;;;4.57;;
1887;SDS011;944;51.574;6.980;2022-08-18T20:36:52;6.30;;;4.23;;
1887;SDS011;944;51.574;6.980;2022-08-18T20:39:45;9.77;;;4.33;;
1887;SDS011;944;51.574;6.980;2022-08-18T20:45:19;5.43;;;4.10;;
1887;SDS011;944;51.574;6.980;2022-08-18T20:48:10;9.70;;;4.70;;
1887;SDS011;944;51.574;6.980;2022-08-18T22:16:18;7.83;;;5.40;;
1887;SDS011;944;51.574;6.980;2022-08-18T22:19:22;6.57;;;5.37;;
